Wednesday, August 15, 2018, 12:50 AM EDT
Back to Local

KASH, Nashua, Boire Field Airport

Location: Nashua, NH, United States Lat: 42.782
Local Time: 12:50 AM EDT ( 4:50 GMT) Lon: -71.515
Time Zone: US/Eastern Elev: 200 ft

Show me the last for .
Show Decoded

2018-08-15 00:35 METAR KASH 150435Z AUTO 00000KT 1/2SM FG OVC002 19/19 A2984 RMK AO2 PNO $ =
2018-08-15 00:27 METAR KASH 150427Z AUTO 00000KT 3/4SM BR BKN002 OVC011 19/19 A2985 RMK AO2 TSNO
                 PNO $ =
2018-08-15 00:25 METAR KASH 150425Z AUTO 31003KT 1 1/2SM BR BKN002 OVC011 19/19 A2985 RMK AO2 PNO
                 $ =
2018-08-15 00:19 METAR KASH 150419Z AUTO 00000KT 6SM BR BKN002 BKN011 19/19 A2985 RMK AO2 PNO $ =
2018-08-15 00:08 METAR KASH 150408Z AUTO 30003KT 8SM SCT002 BKN011 19/19 A2985 RMK AO2 PNO $ =
2018-08-14 23:56 METAR KASH 150356Z AUTO 00000KT 5SM BR CLR 19/19 A2985 RMK AO2 SLP116 T01940194
                 402720194 PNO $ =
2018-08-14 22:56 METAR KASH 150256Z AUTO 00000KT 9SM SCT022 20/20 A2985 RMK AO2 SLP115 6////
                 T02000200 56002 PNO $ =
2018-08-14 21:56 METAR KASH 150156Z AUTO 30003KT 9SM BKN022 OVC028 21/21 A2985 RMK AO2 SLP115
                 T02110211 PNO $ =
2018-08-14 21:30 METAR KASH 150130Z AUTO 00000KT 7SM BKN022 OVC032 21/21 A2985 RMK AO2 PNO $ =
2018-08-14 20:56 METAR KASH 150056Z 00000KT 9SM FEW035 SCT065 21/21 A2985 RMK AO2 RAB15E38 SLP117
                 T02060206 PNO $ =
2018-08-14 19:56 METAR KASH 142356Z COR 00000KT 10SM SCT039 SCT049 BKN110 21/21 A2984 RMK AO2
                 SLP114 6//// T02110211 10261 20206 55001 PNO $ =
2018-08-14 18:56 METAR KASH 142256Z 00000KT 10SM FEW045 SCT100 BKN120 22/21 A2983 RMK AO2
                 TSB16E36RAE55 SLP110 T02170211 PNO $ =
2018-08-14 18:37 METAR KASH 142237Z 13007KT 10SM -RA SCT037 BKN075 OVC110 22/22 A2983 RMK AO2
                 TSB16E36 PNO $ =
2018-08-14 18:20 METAR KASH 142220Z 14005KT 5SM TSRA BR SCT037 BKN075 OVC110 22/22 A2984 RMK AO2
                 TSB16 PNO $ =
2018-08-14 17:56 METAR KASH 142156Z 00000KT 10SM -RA SCT037 BKN090 OVC110 23/23 A2984 RMK AO2
                 RAB36 SLP112 T02280228 PNO $ =
2018-08-14 16:56 METAR KASH 142056Z 01003KT 10SM FEW010 SCT075 BKN110 24/22 A2985 RMK AO2 SLP115
                 6//// T02390222 56017 PNO $ =
2018-08-14 15:56 METAR KASH 141956Z COR 00000KT 10SM FEW006 SCT050 BKN065 22/22 A2986 RMK AO2 LTG
                 DSNT NE AND E TSE12RAE47 PNO $ =
2018-08-14 15:47 METAR KASH 141947Z COR 01003KT 10SM FEW006 SCT050 BKN065 22/22 A2986 RMK AO2 LTG
                 DSNT NE AND E TSE12RAE47 PNO $ =
2018-08-14 15:18 METAR KASH 141918Z 00000KT 5SM +RA BR SCT009 BKN015 BKN046 21/21 A2989 RMK AO2
                 TSE12 P0000 =
2018-08-14 15:03 METAR KASH 141903Z 00000KT 10SM VCTS SCT009 BKN015 OVC046 21/21 A2990 RMK AO2
                 LTG DSNT NW RAE00 P0000 =
2018-08-14 14:56 METAR KASH 141856Z 33005KT 10SM VCTS -RA SCT015 BKN028 OVC035 21/21 A2990 RMK
                 AO2 LTG DSNT NW TSE20B39 SLP132 T02110206 =
2018-08-14 14:45 METAR KASH 141845Z 10010KT 4SM -TSRA BR SCT015 BKN028 OVC035 21/21 A2991 RMK AO2
                 LTG DSNT NE TSE20B39 PRESRR =
2018-08-14 14:26 METAR KASH 141826Z 29011G20KT 10SM -RA SCT019 BKN028 OVC065 22/21 A2988 RMK AO2
                 LTG DSNT SW AND NW TSE20 PNO $ =
2018-08-14 13:56 METAR KASH 141756Z 00000KT 10SM VCTS -RA SCT019 BKN026 OVC060 26/23 A2987 RMK
                 AO2 LTG DSNT S-W TSB49RAB48 SLP123 6//// T02610228 10272 20206 56014 PNO $ =
2018-08-14 13:03 METAR KASH 141703Z VRB03KT 10SM SCT018 BKN026 27/23 A2989 RMK AO2 PNO $ =
2018-08-14 12:56 METAR KASH 141656Z COR 00000KT 10SM SCT018 BKN026 26/23 A2989 RMK AO2 SLP128
                 T02610228 PNO $ =
2018-08-14 12:38 METAR KASH 141638Z 00000KT 10SM BKN018 BKN033 26/23 A2989 RMK AO2 PNO $ =
2018-08-14 11:56 METAR KASH 141556Z VRB03KT 10SM SCT009 BKN014 OVC022 24/23 A2991 RMK AO2 SLP137
                 T02440228 PNO $ =
2018-08-14 11:42 METAR KASH 141542Z 00000KT 10SM SCT009 BKN014 OVC022 23/22 A2992 RMK AO2 PNO $ =
2018-08-14 11:35 METAR KASH 141535Z 00000KT 10SM SCT009 BKN016 OVC022 23/22 A2992 RMK AO2 PNO $ =
2018-08-14 10:56 METAR KASH 141456Z 15003KT 10SM OVC007 23/22 A2993 RMK AO2 CIG 004V010 SLP142
                 6//// T02280222 58003 PNO $ =
2018-08-14 10:52 METAR KASH 141452Z 00000KT 2SM BR OVC007 22/22 A2993 RMK AO2 CIG 004V010 PNO $ =
2018-08-14 09:56 METAR KASH 141356Z 00000KT 2SM BR OVC003 21/21 A2993 RMK AO2 SLP143 T02110211
                 PNO $ =
2018-08-14 08:56 METAR KASH 141256Z 00000KT 1SM BR OVC003 21/21 A2994 RMK AO2 SLP146 T02110211
                 PNO $ =
2018-08-14 07:56 METAR KASH 141156Z 09004KT 2 1/2SM BR OVC003 21/21 A2994 RMK AO2 SLP146 6////
                 7//// T02060206 10206 20200 53004 PNO $ =
2018-08-14 06:56 METAR KASH 141056Z 10003KT 3SM BR OVC003 20/20 A2993 RMK AO2 SLP143 T02000200
                 PNO $ =
2018-08-14 06:43 METAR KASH 141043Z AUTO 08003KT 3SM BR OVC003 20/20 A2993 RMK AO2 PNO $ =
2018-08-14 06:36 METAR KASH 141036Z AUTO 07003KT 1 1/4SM BR OVC003 20/20 A2993 RMK AO2 PNO $ =
2018-08-14 06:31 METAR KASH 141031Z AUTO 08004KT 3/4SM BR OVC003 20/20 A2992 RMK AO2 PNO $ =
2018-08-14 06:23 METAR KASH 141023Z AUTO 10003KT 1/2SM FG OVC003 20/20 A2993 RMK AO2 PNO $ =
2018-08-14 05:56 METAR KASH 140956Z AUTO 09004KT 1/4SM FG OVC003 20/20 A2992 RMK AO2 SLP140
                 T02000200 PNO $ =
2018-08-14 05:14 METAR KASH 140914Z AUTO 10003KT 1/2SM FG OVC003 20/20 A2992 RMK AO2 PNO $ =
2018-08-14 04:56 METAR KASH 140856Z AUTO 00000KT 3/4SM BR OVC003 20/20 A2992 RMK AO2 SLP141 6////
                 T02000200 56005 PNO $ =
2018-08-14 04:52 METAR KASH 140852Z AUTO 00000KT 3/4SM BR OVC003 20/20 A2992 RMK AO2 PNO $ =
2018-08-14 04:40 METAR KASH 140840Z AUTO 00000KT 1SM BR OVC003 20/20 A2992 RMK AO2 PNO $ =
2018-08-14 04:23 METAR KASH 140823Z AUTO 00000KT 1 3/4SM BR OVC003 20/20 A2992 RMK AO2 PNO $ =
2018-08-14 03:56 METAR KASH 140756Z AUTO 10003KT 2SM BR OVC003 20/20 A2992 RMK AO2 RAE10 SLP140
                 T02000200 PNO $ =
2018-08-14 03:48 METAR KASH 140748Z AUTO 07003KT 2 1/2SM BR OVC003 20/20 A2992 RMK AO2 VIS 1
                 3/4V3 RAE10 PNO $ =
2018-08-14 02:56 METAR KASH 140656Z AUTO 09003KT 8SM -RA OVC003 21/21 A2994 RMK AO2 RAE13B38
                 SLP146 T02060206 PNO $ =
2018-08-14 01:56 METAR KASH 140556Z AUTO 00000KT 6SM -RA BR OVC003 20/20 A2995 RMK AO2 RAB28
                 SLP150 6//// T02000200 10211 20200 58009 PNO $ =
2018-08-14 00:56 METAR KASH 140456Z AUTO 10006KT 6SM BR OVC003 20/20 A2996 RMK AO2 RAE15 SLP154
                 T02000200 PNO $ =

Support USWX by starting your Amazon purchase here.